sensor_id;sensor_type;location;lat;lon;timestamp;P1;durP1;ratioP1;P2;durP2;ratioP2
39888;SDS011;25563;50.844;4.308;2022-10-23T00:06:45;7.78;;;3.83;;
39888;SDS011;25563;50.844;4.308;2022-10-23T00:09:12;9.75;;;3.45;;
39888;SDS011;25563;50.844;4.308;2022-10-23T00:11:40;15.65;;;4.35;;
39888;SDS011;25563;50.844;4.308;2022-10-23T00:14:08;9.88;;;3.83;;
39888;SDS011;25563;50.844;4.308;2022-10-23T00:16:35;9.07;;;3.33;;
39888;SDS011;25563;50.844;4.308;2022-10-23T00:19:01;15.88;;;3.35;;
39888;SDS011;25563;50.844;4.308;2022-10-23T00:21:27;10.85;;;3.28;;
39888;SDS011;25563;50.844;4.308;2022-10-23T00:23:53;9.15;;;3.10;;
39888;SDS011;25563;50.844;4.308;2022-10-23T00:26:19;4.68;;;2.67;;
39888;SDS011;25563;50.844;4.308;2022-10-23T00:28:49;6.00;;;2.67;;
39888;SDS011;25563;50.844;4.308;2022-10-23T00:31:16;6.60;;;3.03;;
39888;SDS011;25563;50.844;4.308;2022-10-23T00:33:43;5.57;;;3.38;;
39888;SDS011;25563;50.844;4.308;2022-10-23T00:36:09;6.30;;;2.55;;
39888;SDS011;25563;50.844;4.308;2022-10-23T00:38:37;10.48;;;2.97;;
39888;SDS011;25563;50.844;4.308;2022-10-23T00:41:03;7.05;;;3.28;;
39888;SDS011;25563;50.844;4.308;2022-10-23T00:43:30;8.57;;;3.03;;
39888;SDS011;25563;50.844;4.308;2022-10-23T00:45:56;4.53;;;3.05;;
39888;SDS011;25563;50.844;4.308;2022-10-23T00:48:23;6.13;;;3.75;;
39888;SDS011;25563;50.844;4.308;2022-10-23T00:50:52;10.93;;;3.45;;
39888;SDS011;25563;50.844;4.308;2022-10-23T00:53:20;4.10;;;2.83;;
39888;SDS011;25563;50.844;4.308;2022-10-23T00:55:48;7.43;;;2.97;;
39888;SDS011;25563;50.844;4.308;2022-10-23T00:58:16;8.20;;;2.50;;
39888;SDS011;25563;50.844;4.308;2022-10-23T01:00:52;7.18;;;2.30;;
39888;SDS011;25563;50.844;4.308;2022-10-23T01:03:20;3.65;;;2.15;;
39888;SDS011;25563;50.844;4.308;2022-10-23T01:11:31;5.80;;;2.28;;
39888;SDS011;25563;50.844;4.308;2022-10-23T01:25:22;8.38;;;2.20;;
39888;SDS011;25563;50.844;4.308;2022-10-23T01:28:14;6.20;;;2.03;;
39888;SDS011;25563;50.844;4.308;2022-10-23T01:30:48;5.57;;;1.35;;
39888;SDS011;25563;50.844;4.308;2022-10-23T01:33:32;5.68;;;1.60;;
39888;SDS011;25563;50.844;4.308;2022-10-23T01:36:19;7.88;;;2.03;;
39888;SDS011;25563;50.844;4.308;2022-10-23T01:39:06;3.58;;;1.73;;
39888;SDS011;25563;50.844;4.308;2022-10-23T01:41:47;6.70;;;1.88;;
39888;SDS011;25563;50.844;4.308;2022-10-23T01:47:09;4.53;;;1.52;;
39888;SDS011;25563;50.844;4.308;2022-10-23T01:49:37;3.08;;;1.33;;
39888;SDS011;25563;50.844;4.308;2022-10-23T01:52:07;4.97;;;1.33;;
39888;SDS011;25563;50.844;4.308;2022-10-23T01:54:37;5.35;;;1.70;;
39888;SDS011;25563;50.844;4.308;2022-10-23T01:57:07;6.97;;;1.60;;
39888;SDS011;25563;50.844;4.308;2022-10-23T01:59:38;5.68;;;1.58;;
39888;SDS011;25563;50.844;4.308;2022-10-23T02:02:10;9.23;;;1.67;;
39888;SDS011;25563;50.844;4.308;2022-10-23T02:07:34;3.53;;;1.45;;
39888;SDS011;25563;50.844;4.308;2022-10-23T02:10:03;10.73;;;2.00;;
39888;SDS011;25563;50.844;4.308;2022-10-23T02:15:25;3.40;;;1.40;;
39888;SDS011;25563;50.844;4.308;2022-10-23T02:20:38;5.93;;;1.70;;
39888;SDS011;25563;50.844;4.308;2022-10-23T02:23:21;5.72;;;1.60;;
39888;SDS011;25563;50.844;4.308;2022-10-23T02:26:16;4.10;;;1.88;;
39888;SDS011;25563;50.844;4.308;2022-10-23T02:28:47;4.38;;;1.80;;
39888;SDS011;25563;50.844;4.308;2022-10-23T02:31:17;3.28;;;1.42;;
39888;SDS011;25563;50.844;4.308;2022-10-23T02:33:45;6.90;;;1.80;;
39888;SDS011;25563;50.844;4.308;2022-10-23T02:36:11;4.78;;;1.55;;
39888;SDS011;25563;50.844;4.308;2022-10-23T02:38:39;2.63;;;1.60;;
39888;SDS011;25563;50.844;4.308;2022-10-23T02:41:29;3.03;;;1.50;;
39888;SDS011;25563;50.844;4.308;2022-10-23T02:57:49;5.38;;;1.70;;
39888;SDS011;25563;50.844;4.308;2022-10-23T03:00:20;3.42;;;1.40;;
39888;SDS011;25563;50.844;4.308;2022-10-23T03:02:54;2.95;;;1.38;;
39888;SDS011;25563;50.844;4.308;2022-10-23T03:05:24;5.10;;;1.45;;
39888;SDS011;25563;50.844;4.308;2022-10-23T03:07:55;7.35;;;1.40;;
39888;SDS011;25563;50.844;4.308;2022-10-23T03:10:23;11.48;;;1.58;;
39888;SDS011;25563;50.844;4.308;2022-10-23T03:12:49;4.35;;;1.67;;
39888;SDS011;25563;50.844;4.308;2022-10-23T03:15:15;6.55;;;1.75;;
39888;SDS011;25563;50.844;4.308;2022-10-23T03:17:41;2.88;;;1.42;;
39888;SDS011;25563;50.844;4.308;2022-10-23T03:20:07;7.45;;;5.60;;
39888;SDS011;25563;50.844;4.308;2022-10-23T03:22:33;6.80;;;3.40;;
39888;SDS011;25563;50.844;4.308;2022-10-23T03:25:00;4.68;;;1.33;;
39888;SDS011;25563;50.844;4.308;2022-10-23T03:27:26;4.82;;;1.83;;
39888;SDS011;25563;50.844;4.308;2022-10-23T03:29:52;6.95;;;1.52;;
39888;SDS011;25563;50.844;4.308;2022-10-23T03:32:17;6.32;;;2.00;;
39888;SDS011;25563;50.844;4.308;2022-10-23T03:34:43;6.10;;;3.28;;
39888;SDS011;25563;50.844;4.308;2022-10-23T03:37:09;9.02;;;1.70;;
39888;SDS011;25563;50.844;4.308;2022-10-23T03:39:34;4.78;;;1.30;;
39888;SDS011;25563;50.844;4.308;2022-10-23T03:42:00;11.10;;;1.60;;
39888;SDS011;25563;50.844;4.308;2022-10-23T03:44:26;5.53;;;1.27;;
39888;SDS011;25563;50.844;4.308;2022-10-23T03:46:52;3.90;;;1.30;;
39888;SDS011;25563;50.844;4.308;2022-10-23T03:49:17;5.70;;;2.08;;
39888;SDS011;25563;50.844;4.308;2022-10-23T03:51:43;7.55;;;1.67;;
39888;SDS011;25563;50.844;4.308;2022-10-23T03:54:15;4.20;;;2.05;;
39888;SDS011;25563;50.844;4.308;2022-10-23T03:56:42;7.57;;;1.73;;
39888;SDS011;25563;50.844;4.308;2022-10-23T03:59:08;3.63;;;1.65;;
39888;SDS011;25563;50.844;4.308;2022-10-23T04:01:34;7.25;;;1.55;;
39888;SDS011;25563;50.844;4.308;2022-10-23T04:04:00;3.35;;;1.52;;
39888;SDS011;25563;50.844;4.308;2022-10-23T04:06:26;2.88;;;1.77;;
39888;SDS011;25563;50.844;4.308;2022-10-23T04:08:51;5.97;;;1.67;;
39888;SDS011;25563;50.844;4.308;2022-10-23T04:11:17;3.90;;;1.48;;
39888;SDS011;25563;50.844;4.308;2022-10-23T04:13:43;5.20;;;1.75;;
39888;SDS011;25563;50.844;4.308;2022-10-23T04:16:08;3.53;;;1.30;;
39888;SDS011;25563;50.844;4.308;2022-10-23T04:18:34;2.85;;;1.20;;
39888;SDS011;25563;50.844;4.308;2022-10-23T04:21:00;4.78;;;1.45;;
39888;SDS011;25563;50.844;4.308;2022-10-23T04:23:25;2.38;;;1.40;;
39888;SDS011;25563;50.844;4.308;2022-10-23T04:25:54;5.95;;;1.60;;
39888;SDS011;25563;50.844;4.308;2022-10-23T04:28:21;4.60;;;1.30;;
39888;SDS011;25563;50.844;4.308;2022-10-23T04:30:46;6.55;;;1.10;;
39888;SDS011;25563;50.844;4.308;2022-10-23T04:33:12;5.30;;;1.08;;
39888;SDS011;25563;50.844;4.308;2022-10-23T04:35:38;5.40;;;1.30;;
39888;SDS011;25563;50.844;4.308;2022-10-23T04:38:03;3.13;;;1.02;;
39888;SDS011;25563;50.844;4.308;2022-10-23T04:40:29;3.03;;;1.48;;
39888;SDS011;25563;50.844;4.308;2022-10-23T04:42:55;2.75;;;1.33;;
39888;SDS011;25563;50.844;4.308;2022-10-23T04:45:21;5.57;;;1.35;;
39888;SDS011;25563;50.844;4.308;2022-10-23T04:47:47;7.95;;;1.75;;
39888;SDS011;25563;50.844;4.308;2022-10-23T04:50:13;4.55;;;1.85;;
39888;SDS011;25563;50.844;4.308;2022-10-23T04:52:39;8.82;;;1.42;;
39888;SDS011;25563;50.844;4.308;2022-10-23T04:55:05;4.65;;;1.23;;
39888;SDS011;25563;50.844;4.308;2022-10-23T04:57:32;8.10;;;1.67;;
39888;SDS011;25563;50.844;4.308;2022-10-23T04:59:58;3.22;;;1.10;;
39888;SDS011;25563;50.844;4.308;2022-10-23T05:02:23;3.78;;;1.48;;
39888;SDS011;25563;50.844;4.308;2022-10-23T05:04:49;2.63;;;1.17;;
39888;SDS011;25563;50.844;4.308;2022-10-23T05:07:15;8.07;;;1.63;;
39888;SDS011;25563;50.844;4.308;2022-10-23T05:09:41;4.38;;;1.55;;
39888;SDS011;25563;50.844;4.308;2022-10-23T05:12:07;4.43;;;1.42;;
39888;SDS011;25563;50.844;4.308;2022-10-23T05:14:33;2.33;;;1.52;;
39888;SDS011;25563;50.844;4.308;2022-10-23T05:17:01;2.92;;;1.63;;
39888;SDS011;25563;50.844;4.308;2022-10-23T05:19:33;7.68;;;1.33;;
39888;SDS011;25563;50.844;4.308;2022-10-23T05:22:05;2.67;;;1.60;;
39888;SDS011;25563;50.844;4.308;2022-10-23T05:24:32;2.53;;;1.33;;
39888;SDS011;25563;50.844;4.308;2022-10-23T05:26:58;2.47;;;1.60;;
39888;SDS011;25563;50.844;4.308;2022-10-23T05:29:24;2.70;;;1.27;;
39888;SDS011;25563;50.844;4.308;2022-10-23T05:31:50;7.40;;;1.42;;
39888;SDS011;25563;50.844;4.308;2022-10-23T05:34:21;8.60;;;2.25;;
39888;SDS011;25563;50.844;4.308;2022-10-23T05:36:50;8.27;;;1.58;;
39888;SDS011;25563;50.844;4.308;2022-10-23T05:39:17;2.50;;;1.40;;
39888;SDS011;25563;50.844;4.308;2022-10-23T05:41:43;2.20;;;1.30;;
39888;SDS011;25563;50.844;4.308;2022-10-23T05:44:21;6.97;;;1.50;;
39888;SDS011;25563;50.844;4.308;2022-10-23T05:46:46;6.43;;;1.60;;
39888;SDS011;25563;50.844;4.308;2022-10-23T05:49:12;3.90;;;1.80;;
39888;SDS011;25563;50.844;4.308;2022-10-23T05:51:38;4.50;;;1.58;;
39888;SDS011;25563;50.844;4.308;2022-10-23T05:54:04;3.75;;;1.83;;
39888;SDS011;25563;50.844;4.308;2022-10-23T05:56:35;5.53;;;3.00;;
39888;SDS011;25563;50.844;4.308;2022-10-23T05:59:03;2.70;;;2.47;;
39888;SDS011;25563;50.844;4.308;2022-10-23T06:01:28;9.25;;;2.53;;
39888;SDS011;25563;50.844;4.308;2022-10-23T06:03:55;10.70;;;3.08;;
39888;SDS011;25563;50.844;4.308;2022-10-23T06:06:22;2.25;;;1.52;;
39888;SDS011;25563;50.844;4.308;2022-10-23T06:08:48;10.65;;;2.15;;
39888;SDS011;25563;50.844;4.308;2022-10-23T06:11:14;5.03;;;2.65;;
39888;SDS011;25563;50.844;4.308;2022-10-23T06:13:43;12.38;;;2.28;;
39888;SDS011;25563;50.844;4.308;2022-10-23T06:16:14;2.75;;;2.45;;
39888;SDS011;25563;50.844;4.308;2022-10-23T06:18:45;4.35;;;1.70;;
39888;SDS011;25563;50.844;4.308;2022-10-23T06:21:12;2.67;;;2.08;;
39888;SDS011;25563;50.844;4.308;2022-10-23T06:23:39;6.70;;;2.40;;
39888;SDS011;25563;50.844;4.308;2022-10-23T06:26:07;3.05;;;2.50;;
39888;SDS011;25563;50.844;4.308;2022-10-23T06:28:36;7.00;;;1.90;;
39888;SDS011;25563;50.844;4.308;2022-10-23T06:31:03;6.00;;;1.88;;
39888;SDS011;25563;50.844;4.308;2022-10-23T06:33:30;5.47;;;1.63;;
39888;SDS011;25563;50.844;4.308;2022-10-23T06:35:56;2.15;;;1.83;;
39888;SDS011;25563;50.844;4.308;2022-10-23T06:38:22;3.88;;;2.08;;
39888;SDS011;25563;50.844;4.308;2022-10-23T06:40:52;3.38;;;2.03;;
39888;SDS011;25563;50.844;4.308;2022-10-23T06:43:18;4.78;;;2.40;;
39888;SDS011;25563;50.844;4.308;2022-10-23T06:45:45;5.32;;;2.22;;
39888;SDS011;25563;50.844;4.308;2022-10-23T06:48:10;6.93;;;3.90;;
39888;SDS011;25563;50.844;4.308;2022-10-23T06:50:37;6.35;;;3.40;;
39888;SDS011;25563;50.844;4.308;2022-10-23T06:53:03;3.42;;;3.10;;
39888;SDS011;25563;50.844;4.308;2022-10-23T06:55:30;7.30;;;2.38;;
39888;SDS011;25563;50.844;4.308;2022-10-23T06:57:57;8.65;;;2.28;;
39888;SDS011;25563;50.844;4.308;2022-10-23T07:00:23;8.80;;;2.55;;
39888;SDS011;25563;50.844;4.308;2022-10-23T07:02:49;6.57;;;3.45;;
39888;SDS011;25563;50.844;4.308;2022-10-23T07:05:16;4.18;;;2.00;;
39888;SDS011;25563;50.844;4.308;2022-10-23T07:07:42;8.75;;;1.77;;
39888;SDS011;25563;50.844;4.308;2022-10-23T07:10:08;3.97;;;1.77;;
39888;SDS011;25563;50.844;4.308;2022-10-23T07:12:34;4.32;;;1.75;;
39888;SDS011;25563;50.844;4.308;2022-10-23T07:14:59;9.32;;;1.60;;
39888;SDS011;25563;50.844;4.308;2022-10-23T07:17:26;3.63;;;1.50;;
39888;SDS011;25563;50.844;4.308;2022-10-23T07:19:53;3.30;;;2.20;;
39888;SDS011;25563;50.844;4.308;2022-10-23T07:22:19;6.47;;;1.67;;
39888;SDS011;25563;50.844;4.308;2022-10-23T07:24:45;8.60;;;1.48;;
39888;SDS011;25563;50.844;4.308;2022-10-23T07:27:11;3.38;;;1.83;;
39888;SDS011;25563;50.844;4.308;2022-10-23T07:29:36;5.35;;;1.60;;
39888;SDS011;25563;50.844;4.308;2022-10-23T07:32:02;5.05;;;1.92;;
39888;SDS011;25563;50.844;4.308;2022-10-23T07:34:28;5.10;;;1.75;;
39888;SDS011;25563;50.844;4.308;2022-10-23T07:36:55;4.53;;;3.22;;
39888;SDS011;25563;50.844;4.308;2022-10-23T07:39:21;8.20;;;3.30;;
39888;SDS011;25563;50.844;4.308;2022-10-23T07:41:47;6.45;;;2.42;;
39888;SDS011;25563;50.844;4.308;2022-10-23T07:44:13;2.85;;;1.63;;
39888;SDS011;25563;50.844;4.308;2022-10-23T07:46:39;4.72;;;1.90;;
39888;SDS011;25563;50.844;4.308;2022-10-23T07:49:04;2.75;;;1.33;;
39888;SDS011;25563;50.844;4.308;2022-10-23T07:51:30;6.70;;;1.30;;
39888;SDS011;25563;50.844;4.308;2022-10-23T07:53:56;3.20;;;1.70;;
39888;SDS011;25563;50.844;4.308;2022-10-23T07:56:24;6.07;;;1.63;;
39888;SDS011;25563;50.844;4.308;2022-10-23T07:58:54;1.67;;;1.08;;
39888;SDS011;25563;50.844;4.308;2022-10-23T08:01:33;6.32;;;1.60;;
39888;SDS011;25563;50.844;4.308;2022-10-23T08:04:04;6.32;;;1.83;;
39888;SDS011;25563;50.844;4.308;2022-10-23T08:06:31;9.50;;;1.35;;
39888;SDS011;25563;50.844;4.308;2022-10-23T08:08:59;2.20;;;1.33;;
39888;SDS011;25563;50.844;4.308;2022-10-23T08:11:25;4.82;;;1.38;;
39888;SDS011;25563;50.844;4.308;2022-10-23T08:13:53;3.78;;;1.38;;
39888;SDS011;25563;50.844;4.308;2022-10-23T08:16:20;4.13;;;1.95;;
39888;SDS011;25563;50.844;4.308;2022-10-23T08:18:46;4.15;;;1.60;;
39888;SDS011;25563;50.844;4.308;2022-10-23T08:21:13;3.05;;;2.05;;
39888;SDS011;25563;50.844;4.308;2022-10-23T08:23:40;3.53;;;1.50;;
39888;SDS011;25563;50.844;4.308;2022-10-23T08:26:06;4.85;;;1.80;;
39888;SDS011;25563;50.844;4.308;2022-10-23T08:28:34;3.00;;;1.40;;
39888;SDS011;25563;50.844;4.308;2022-10-23T08:31:07;3.85;;;1.77;;
39888;SDS011;25563;50.844;4.308;2022-10-23T08:33:34;15.40;;;2.10;;
39888;SDS011;25563;50.844;4.308;2022-10-23T08:36:00;4.93;;;2.45;;
39888;SDS011;25563;50.844;4.308;2022-10-23T08:38:26;6.05;;;2.10;;
39888;SDS011;25563;50.844;4.308;2022-10-23T08:40:53;5.85;;;2.70;;
39888;SDS011;25563;50.844;4.308;2022-10-23T08:43:21;8.23;;;1.70;;
39888;SDS011;25563;50.844;4.308;2022-10-23T08:46:03;4.15;;;1.30;;
39888;SDS011;25563;50.844;4.308;2022-10-23T08:48:38;9.85;;;1.70;;
39888;SDS011;25563;50.844;4.308;2022-10-23T08:51:14;3.92;;;1.75;;
39888;SDS011;25563;50.844;4.308;2022-10-23T08:54:06;4.93;;;2.03;;
39888;SDS011;25563;50.844;4.308;2022-10-23T08:56:41;3.85;;;1.70;;
39888;SDS011;25563;50.844;4.308;2022-10-23T09:04:52;4.15;;;1.80;;
39888;SDS011;25563;50.844;4.308;2022-10-23T09:12:49;7.30;;;1.88;;
39888;SDS011;25563;50.844;4.308;2022-10-23T09:15:26;7.45;;;2.35;;
39888;SDS011;25563;50.844;4.308;2022-10-23T09:17:57;6.05;;;2.60;;
39888;SDS011;25563;50.844;4.308;2022-10-23T09:20:36;6.70;;;2.33;;
39888;SDS011;25563;50.844;4.308;2022-10-23T09:23:06;3.78;;;1.70;;
39888;SDS011;25563;50.844;4.308;2022-10-23T09:25:40;3.22;;;1.70;;
39888;SDS011;25563;50.844;4.308;2022-10-23T09:28:24;8.93;;;2.65;;
39888;SDS011;25563;50.844;4.308;2022-10-23T09:31:04;5.72;;;1.80;;
39888;SDS011;25563;50.844;4.308;2022-10-23T09:33:34;7.85;;;1.90;;
39888;SDS011;25563;50.844;4.308;2022-10-23T09:36:02;7.68;;;2.38;;
39888;SDS011;25563;50.844;4.308;2022-10-23T09:43:42;9.48;;;5.03;;
39888;SDS011;25563;50.844;4.308;2022-10-23T09:46:08;9.18;;;4.45;;
39888;SDS011;25563;50.844;4.308;2022-10-23T09:48:35;7.60;;;3.30;;
39888;SDS011;25563;50.844;4.308;2022-10-23T09:51:14;3.58;;;2.13;;
39888;SDS011;25563;50.844;4.308;2022-10-23T09:54:00;6.78;;;2.13;;
39888;SDS011;25563;50.844;4.308;2022-10-23T09:56:28;8.48;;;2.33;;
39888;SDS011;25563;50.844;4.308;2022-10-23T09:59:04;4.68;;;2.13;;
39888;SDS011;25563;50.844;4.308;2022-10-23T10:01:47;3.10;;;2.17;;
39888;SDS011;25563;50.844;4.308;2022-10-23T10:04:16;5.05;;;2.30;;
39888;SDS011;25563;50.844;4.308;2022-10-23T10:06:42;12.07;;;3.05;;
39888;SDS011;25563;50.844;4.308;2022-10-23T10:09:12;9.75;;;2.10;;
39888;SDS011;25563;50.844;4.308;2022-10-23T10:11:45;3.45;;;2.00;;
39888;SDS011;25563;50.844;4.308;2022-10-23T10:25:46;7.38;;;2.63;;
39888;SDS011;25563;50.844;4.308;2022-10-23T10:28:29;3.55;;;1.63;;
39888;SDS011;25563;50.844;4.308;2022-10-23T10:39:11;5.75;;;2.10;;
39888;SDS011;25563;50.844;4.308;2022-10-23T10:50:30;10.40;;;2.50;;
39888;SDS011;25563;50.844;4.308;2022-10-23T10:55:42;6.72;;;2.60;;
39888;SDS011;25563;50.844;4.308;2022-10-23T11:00:46;3.45;;;1.90;;
39888;SDS011;25563;50.844;4.308;2022-10-23T11:03:32;4.53;;;2.80;;
39888;SDS011;25563;50.844;4.308;2022-10-23T11:06:04;5.85;;;2.45;;
39888;SDS011;25563;50.844;4.308;2022-10-23T11:08:38;7.35;;;2.45;;
39888;SDS011;25563;50.844;4.308;2022-10-23T11:11:20;8.25;;;2.92;;
39888;SDS011;25563;50.844;4.308;2022-10-23T11:13:51;7.55;;;2.60;;
39888;SDS011;25563;50.844;4.308;2022-10-23T11:16:22;8.07;;;2.53;;
39888;SDS011;25563;50.844;4.308;2022-10-23T11:21:41;4.55;;;3.10;;
39888;SDS011;25563;50.844;4.308;2022-10-23T11:32:54;11.90;;;3.42;;
39888;SDS011;25563;50.844;4.308;2022-10-23T11:35:25;5.93;;;2.83;;
39888;SDS011;25563;50.844;4.308;2022-10-23T11:40:56;12.90;;;3.53;;
39888;SDS011;25563;50.844;4.308;2022-10-23T11:43:59;6.88;;;3.20;;
39888;SDS011;25563;50.844;4.308;2022-10-23T11:48:52;9.30;;;2.90;;
39888;SDS011;25563;50.844;4.308;2022-10-23T11:51:26;5.47;;;2.28;;
39888;SDS011;25563;50.844;4.308;2022-10-23T11:53:52;10.90;;;3.30;;
39888;SDS011;25563;50.844;4.308;2022-10-23T11:56:29;7.35;;;2.53;;
39888;SDS011;25563;50.844;4.308;2022-10-23T11:58:58;5.83;;;2.30;;
39888;SDS011;25563;50.844;4.308;2022-10-23T12:01:43;6.90;;;3.13;;
39888;SDS011;25563;50.844;4.308;2022-10-23T12:14:44;4.82;;;2.42;;
39888;SDS011;25563;50.844;4.308;2022-10-23T12:19:49;5.70;;;2.78;;
39888;SDS011;25563;50.844;4.308;2022-10-23T12:22:16;3.38;;;1.63;;
39888;SDS011;25563;50.844;4.308;2022-10-23T12:24:59;5.35;;;3.30;;
39888;SDS011;25563;50.844;4.308;2022-10-23T12:30:27;6.90;;;2.20;;
39888;SDS011;25563;50.844;4.308;2022-10-23T12:36:38;5.70;;;2.95;;
39888;SDS011;25563;50.844;4.308;2022-10-23T12:41:58;2.75;;;1.73;;
39888;SDS011;25563;50.844;4.308;2022-10-23T12:44:26;5.57;;;2.83;;
39888;SDS011;25563;50.844;4.308;2022-10-23T12:49:23;3.75;;;1.98;;
39888;SDS011;25563;50.844;4.308;2022-10-23T12:51:58;5.45;;;2.20;;
39888;SDS011;25563;50.844;4.308;2022-10-23T12:54:26;2.88;;;2.20;;
39888;SDS011;25563;50.844;4.308;2022-10-23T12:59:28;7.38;;;2.08;;
39888;SDS011;25563;50.844;4.308;2022-10-23T13:04:46;3.90;;;2.20;;
39888;SDS011;25563;50.844;4.308;2022-10-23T13:07:17;3.85;;;1.52;;
39888;SDS011;25563;50.844;4.308;2022-10-23T13:09:45;2.53;;;1.52;;
39888;SDS011;25563;50.844;4.308;2022-10-23T13:12:21;4.97;;;1.67;;
39888;SDS011;25563;50.844;4.308;2022-10-23T13:14:55;3.20;;;2.33;;
39888;SDS011;25563;50.844;4.308;2022-10-23T13:17:38;4.95;;;1.98;;
39888;SDS011;25563;50.844;4.308;2022-10-23T13:22:49;2.92;;;1.63;;
39888;SDS011;25563;50.844;4.308;2022-10-23T13:25:32;4.57;;;2.25;;
39888;SDS011;25563;50.844;4.308;2022-10-23T13:30:56;4.50;;;1.92;;
39888;SDS011;25563;50.844;4.308;2022-10-23T13:34:02;7.13;;;2.35;;
39888;SDS011;25563;50.844;4.308;2022-10-23T13:36:47;3.17;;;2.17;;
39888;SDS011;25563;50.844;4.308;2022-10-23T13:39:15;6.07;;;1.88;;
39888;SDS011;25563;50.844;4.308;2022-10-23T13:41:46;4.82;;;2.00;;
39888;SDS011;25563;50.844;4.308;2022-10-23T13:44:18;5.07;;;1.65;;
39888;SDS011;25563;50.844;4.308;2022-10-23T13:46:45;5.72;;;1.80;;
39888;SDS011;25563;50.844;4.308;2022-10-23T13:49:12;3.88;;;2.47;;
39888;SDS011;25563;50.844;4.308;2022-10-23T13:51:48;7.00;;;1.90;;
39888;SDS011;25563;50.844;4.308;2022-10-23T13:54:18;5.85;;;1.65;;
39888;SDS011;25563;50.844;4.308;2022-10-23T13:56:49;4.60;;;2.05;;
39888;SDS011;25563;50.844;4.308;2022-10-23T13:59:16;2.90;;;2.08;;
39888;SDS011;25563;50.844;4.308;2022-10-23T14:01:42;6.70;;;2.15;;
39888;SDS011;25563;50.844;4.308;2022-10-23T14:04:10;15.63;;;1.95;;
39888;SDS011;25563;50.844;4.308;2022-10-23T14:06:37;10.80;;;1.83;;
39888;SDS011;25563;50.844;4.308;2022-10-23T14:09:04;2.95;;;1.83;;
39888;SDS011;25563;50.844;4.308;2022-10-23T14:11:31;4.50;;;1.20;;
39888;SDS011;25563;50.844;4.308;2022-10-23T14:13:57;5.85;;;1.80;;
39888;SDS011;25563;50.844;4.308;2022-10-23T14:16:24;5.32;;;1.80;;
39888;SDS011;25563;50.844;4.308;2022-10-23T14:18:50;4.88;;;1.73;;
39888;SDS011;25563;50.844;4.308;2022-10-23T14:21:18;5.20;;;1.92;;
39888;SDS011;25563;50.844;4.308;2022-10-23T14:23:46;8.15;;;6.22;;
39888;SDS011;25563;50.844;4.308;2022-10-23T14:26:14;3.47;;;1.75;;
39888;SDS011;25563;50.844;4.308;2022-10-23T14:28:42;4.55;;;2.22;;
39888;SDS011;25563;50.844;4.308;2022-10-23T14:31:10;4.05;;;1.77;;
39888;SDS011;25563;50.844;4.308;2022-10-23T14:33:40;4.65;;;1.85;;
39888;SDS011;25563;50.844;4.308;2022-10-23T14:36:07;5.40;;;2.67;;
39888;SDS011;25563;50.844;4.308;2022-10-23T14:38:34;5.68;;;2.13;;
39888;SDS011;25563;50.844;4.308;2022-10-23T14:41:00;4.38;;;1.90;;
39888;SDS011;25563;50.844;4.308;2022-10-23T14:43:26;3.17;;;1.73;;
39888;SDS011;25563;50.844;4.308;2022-10-23T14:45:53;8.82;;;2.47;;
39888;SDS011;25563;50.844;4.308;2022-10-23T14:48:19;5.72;;;2.33;;
39888;SDS011;25563;50.844;4.308;2022-10-23T14:50:46;4.10;;;1.83;;
39888;SDS011;25563;50.844;4.308;2022-10-23T14:53:13;4.53;;;2.03;;
39888;SDS011;25563;50.844;4.308;2022-10-23T14:55:40;7.53;;;1.73;;
39888;SDS011;25563;50.844;4.308;2022-10-23T14:58:06;6.78;;;2.10;;
39888;SDS011;25563;50.844;4.308;2022-10-23T15:00:32;6.22;;;2.80;;
39888;SDS011;25563;50.844;4.308;2022-10-23T15:02:57;8.18;;;2.40;;
39888;SDS011;25563;50.844;4.308;2022-10-23T15:05:24;7.80;;;2.65;;
39888;SDS011;25563;50.844;4.308;2022-10-23T15:07:49;17.00;;;2.58;;
39888;SDS011;25563;50.844;4.308;2022-10-23T15:10:15;5.47;;;2.10;;
39888;SDS011;25563;50.844;4.308;2022-10-23T15:12:41;6.72;;;2.03;;
39888;SDS011;25563;50.844;4.308;2022-10-23T15:15:06;8.48;;;2.50;;
39888;SDS011;25563;50.844;4.308;2022-10-23T15:17:34;8.52;;;2.95;;
39888;SDS011;25563;50.844;4.308;2022-10-23T15:20:02;6.60;;;2.53;;
39888;SDS011;25563;50.844;4.308;2022-10-23T15:22:28;6.05;;;2.67;;
39888;SDS011;25563;50.844;4.308;2022-10-23T15:24:54;8.88;;;2.95;;
39888;SDS011;25563;50.844;4.308;2022-10-23T15:27:21;6.15;;;2.95;;
39888;SDS011;25563;50.844;4.308;2022-10-23T15:29:47;11.77;;;3.65;;
39888;SDS011;25563;50.844;4.308;2022-10-23T15:32:13;6.32;;;2.80;;
39888;SDS011;25563;50.844;4.308;2022-10-23T15:34:40;5.57;;;2.83;;
39888;SDS011;25563;50.844;4.308;2022-10-23T15:37:07;10.73;;;2.78;;
39888;SDS011;25563;50.844;4.308;2022-10-23T15:39:33;6.85;;;2.20;;
39888;SDS011;25563;50.844;4.308;2022-10-23T15:41:59;7.00;;;2.58;;
39888;SDS011;25563;50.844;4.308;2022-10-23T15:44:27;10.13;;;3.08;;
39888;SDS011;25563;50.844;4.308;2022-10-23T15:46:53;9.15;;;3.15;;
39888;SDS011;25563;50.844;4.308;2022-10-23T15:49:22;14.75;;;3.50;;
39888;SDS011;25563;50.844;4.308;2022-10-23T15:51:49;4.88;;;2.33;;
39888;SDS011;25563;50.844;4.308;2022-10-23T15:54:17;7.40;;;2.90;;
39888;SDS011;25563;50.844;4.308;2022-10-23T15:56:52;8.75;;;2.28;;
39888;SDS011;25563;50.844;4.308;2022-10-23T15:59:22;5.35;;;3.58;;
39888;SDS011;25563;50.844;4.308;2022-10-23T16:02:05;5.40;;;2.38;;
39888;SDS011;25563;50.844;4.308;2022-10-23T16:04:32;7.53;;;2.55;;
39888;SDS011;25563;50.844;4.308;2022-10-23T16:07:00;9.45;;;3.17;;
39888;SDS011;25563;50.844;4.308;2022-10-23T16:09:28;9.88;;;2.47;;
39888;SDS011;25563;50.844;4.308;2022-10-23T16:12:06;7.60;;;2.65;;
39888;SDS011;25563;50.844;4.308;2022-10-23T16:14:43;4.53;;;2.58;;
39888;SDS011;25563;50.844;4.308;2022-10-23T16:17:12;7.45;;;2.33;;
39888;SDS011;25563;50.844;4.308;2022-10-23T16:19:38;10.00;;;2.15;;
39888;SDS011;25563;50.844;4.308;2022-10-23T16:22:07;6.60;;;2.67;;
39888;SDS011;25563;50.844;4.308;2022-10-23T16:24:35;12.30;;;3.22;;
39888;SDS011;25563;50.844;4.308;2022-10-23T16:27:04;4.63;;;2.72;;
39888;SDS011;25563;50.844;4.308;2022-10-23T16:29:39;8.18;;;2.75;;
39888;SDS011;25563;50.844;4.308;2022-10-23T16:32:05;4.72;;;3.33;;
39888;SDS011;25563;50.844;4.308;2022-10-23T16:34:31;6.28;;;3.58;;
39888;SDS011;25563;50.844;4.308;2022-10-23T16:37:04;8.98;;;4.57;;
39888;SDS011;25563;50.844;4.308;2022-10-23T16:39:32;6.78;;;3.55;;
39888;SDS011;25563;50.844;4.308;2022-10-23T16:42:00;8.05;;;4.03;;
39888;SDS011;25563;50.844;4.308;2022-10-23T16:44:36;6.43;;;3.40;;
39888;SDS011;25563;50.844;4.308;2022-10-23T16:47:09;7.07;;;2.95;;
39888;SDS011;25563;50.844;4.308;2022-10-23T16:49:35;12.40;;;3.45;;
39888;SDS011;25563;50.844;4.308;2022-10-23T16:52:01;9.27;;;4.88;;
39888;SDS011;25563;50.844;4.308;2022-10-23T16:54:27;5.07;;;3.83;;
39888;SDS011;25563;50.844;4.308;2022-10-23T16:56:52;9.35;;;4.10;;
39888;SDS011;25563;50.844;4.308;2022-10-23T16:59:18;6.75;;;3.08;;
39888;SDS011;25563;50.844;4.308;2022-10-23T17:01:44;9.02;;;3.25;;
39888;SDS011;25563;50.844;4.308;2022-10-23T17:04:09;11.00;;;3.10;;
39888;SDS011;25563;50.844;4.308;2022-10-23T17:06:35;5.03;;;2.30;;
39888;SDS011;25563;50.844;4.308;2022-10-23T17:09:02;7.25;;;2.97;;
39888;SDS011;25563;50.844;4.308;2022-10-23T17:11:29;5.57;;;2.70;;
39888;SDS011;25563;50.844;4.308;2022-10-23T17:14:04;14.93;;;3.50;;
39888;SDS011;25563;50.844;4.308;2022-10-23T17:18:59;8.70;;;2.92;;
39888;SDS011;25563;50.844;4.308;2022-10-23T17:21:26;11.52;;;3.35;;
39888;SDS011;25563;50.844;4.308;2022-10-23T17:23:57;7.40;;;2.78;;
39888;SDS011;25563;50.844;4.308;2022-10-23T17:26:23;5.35;;;3.22;;
39888;SDS011;25563;50.844;4.308;2022-10-23T17:28:48;7.90;;;2.60;;
39888;SDS011;25563;50.844;4.308;2022-10-23T17:33:42;5.30;;;1.92;;